首页
METAR-TAF:

METAR-TAF

机场 :

门多萨, 阿根廷

纬度: 32-50S, 经度: 068-47W, 海拔: 705米

当前天气观测

该预报发布于30分钟前的00:00 UTC
风速6节,风向东南
温度 19°C
湿度 64%
气压 1015 hPa
能见度10公里或以上
多云层高于3500英尺

METAR: SAME 220000Z 14006KT 9999 BKN035 19/12 Q1015

时间: 21:30 (00:30 UTC)

预报

该预报发布于1小时和30分钟前的23:00 UTC
预报有效从22日的 00点(UTC)到 22日的 24点(UTC)
风速5节,风向西南
能见度10公里或以上
多云层高于3000英尺
散云层高于7000英尺
成为
从 22日的 04点(UTC)到 22日的 06点(UTC)
风速10节,风向南转南东
能見度: 8000
多云层高于2000英尺
多云层高于3000英尺
毛毛雨
成为
从 22日的 15点(UTC)到 22日的 17点(UTC)
风速10节,风向
能见度10公里或以上
散云层高于3000英尺
散云层高于4000英尺

TAF: SAME 212300Z 2200/2224 23005KT 9999 BKN030 SCT070 TN11/2210Z TX17/2219Z BECMG 2204/2206 16010KT 8000 DZ BKN020 BKN030 BECMG 2215/2217 18010KT 9999 SCT030 SCT040

超过4000个机场的气象观测和天气预报(METAR&TAF报告)。

可查询的气象台以黄色和红色小点在地图上表示。

将鼠标移到小点上方,可查看气象台名称。

然后点击查看天气观测和预报。

如需切换地图:点击带黑十字的绿色按钮放大地图;点击带横线的绿色按钮缩小地图;或者点击绿色箭头查看邻近地区的地图。


METAR-TAF: